Terminal Aerodrome Forecast
Issued by NWS

Current Version | Previous Version | Text Only | Print | Product List | Glossary On
Versions: 1 2 3 4 5 6 7 8 9 10 11 12 13 14 15 16 17 18 19 20 21 22 23 24 25 26 27 28 29 30 31
000
FTUS41 KPHI 030304 AAC
TAFPNE
TAF AMD
KPNE 030304Z 0303/0324 07006KT P6SM OVC005
      TEMPO 0303/0307 4SM -RA BR SCT005 OVC012
     FM030700 05008KT 6SM BR OVC006
     FM031500 06010KT P6SM SCT006 OVC020
     FM032100 09008KT P6SM SCT025 BKN100=

USA.gov is the U.S. government's official web portal to all federal, state and local government web resources and services.